Time;durP1;ratioP1;P1;durP2;ratioP2;P2;SDS_P1;SDS_P2;PMS_P1;PMS_P2;Temp;Humidity;BMP_temperature;BMP_pressure;BME280_temperature;BME280_humidity;BME280_pressure;Samples;Min_cycle;Max_cycle;Signal;HPM_P1;HPM_P2
2023/05/22 00:02:16;;;;;;;7.60;6.00;;;17.40;99.90;;;;;;5032481;28;20034;-71
2023/05/22 00:04:42;;;;;;;13.48;6.45;;;17.50;99.90;;;;;;5033628;28;20048;-70
2023/05/22 00:07:08;;;;;;;9.52;6.53;;;17.40;99.90;;;;;;5033150;28;20053;-70
2023/05/22 00:09:34;;;;;;;7.10;5.63;;;17.30;99.90;;;;;;5033326;28;20044;-71
2023/05/22 00:12:00;;;;;;;8.43;6.05;;;17.40;99.90;;;;;;5032392;28;20045;-71
2023/05/22 00:14:26;;;;;;;6.50;5.90;;;17.40;99.90;;;;;;5032781;28;20029;-71
2023/05/22 00:16:54;;;;;;;10.38;6.40;;;17.40;99.90;;;;;;5032850;28;20042;-71
2023/05/22 00:19:21;;;;;;;10.65;6.15;;;17.40;99.90;;;;;;5033497;28;20355;-71
2023/05/22 00:21:50;;;;;;;10.13;6.57;;;17.40;99.90;;;;;;5032831;28;20052;-71
2023/05/22 00:24:16;;;;;;;8.52;6.43;;;17.30;99.90;;;;;;5032339;28;20037;-76
2023/05/22 00:26:42;;;;;;;9.23;6.72;;;17.30;99.90;;;;;;5031710;28;20033;-76
2023/05/22 00:29:08;;;;;;;10.50;6.70;;;17.30;99.90;;;;;;5033067;28;20044;-76
2023/05/22 00:31:34;;;;;;;8.93;6.47;;;17.20;99.90;;;;;;5047625;28;20049;-76
2023/05/22 00:34:00;;;;;;;7.43;6.53;;;17.10;99.90;;;;;;5014437;28;20045;-76
2023/05/22 00:36:26;;;;;;;11.07;7.05;;;16.90;99.90;;;;;;5032468;28;20060;-76
2023/05/22 00:38:52;;;;;;;6.82;5.82;;;16.90;99.90;;;;;;5033167;28;20032;-76
2023/05/22 00:41:18;;;;;;;10.02;6.30;;;16.90;99.90;;;;;;5032733;28;20029;-76
2023/05/22 00:43:45;;;;;;;11.65;6.88;;;17.00;99.90;;;;;;5031072;28;20044;-76
2023/05/22 00:46:11;;;;;;;8.90;6.97;;;16.80;99.90;;;;;;5030515;28;20041;-76
2023/05/22 00:48:37;;;;;;;9.60;6.47;;;16.70;99.90;;;;;;5049685;28;20029;-76
2023/05/22 00:51:04;;;;;;;8.85;6.43;;;16.70;99.90;;;;;;5044733;28;20029;-75
2023/05/22 00:53:30;;;;;;;8.60;6.38;;;16.70;99.90;;;;;;5029000;28;20398;-76
2023/05/22 00:55:56;;;;;;;8.63;6.88;;;16.60;99.90;;;;;;5031066;28;20041;-76
2023/05/22 00:58:22;;;;;;;9.80;6.53;;;16.70;99.90;;;;;;5031556;28;20034;-75
2023/05/22 01:00:48;;;;;;;8.40;6.03;;;16.70;99.90;;;;;;5014308;28;20044;-76
2023/05/22 01:03:14;;;;;;;10.10;6.55;;;16.80;99.90;;;;;;5030446;28;20029;-76
2023/05/22 01:05:41;;;;;;;8.63;6.78;;;16.90;99.90;;;;;;5030927;28;20422;-76
2023/05/22 01:08:07;;;;;;;10.85;6.90;;;16.90;99.90;;;;;;5031203;28;20065;-75
2023/05/22 01:10:34;;;;;;;7.75;6.60;;;16.90;99.90;;;;;;5029685;28;20389;-75
2023/05/22 01:13:05;;;;;;;7.82;6.10;;;16.80;99.90;;;;;;5029200;28;20490;-75
2023/05/22 01:15:32;;;;;;;;;;;16.60;99.90;;;;;;5032350;28;20042;-75
2023/05/22 01:18:09;;;;;;;14.23;6.85;;;16.70;99.90;;;;;;5032488;28;19905;-76
2023/05/22 01:20:39;;;;;;;11.63;7.13;;;16.70;99.90;;;;;;5031198;28;20021;-75
2023/05/22 01:23:08;;;;;;;12.13;7.05;;;16.70;99.90;;;;;;5030939;28;20033;-75
2023/05/22 01:25:40;;;;;;;9.00;6.90;;;16.70;99.90;;;;;;5032142;28;20033;-75
2023/05/22 01:28:28;;;;;;;9.63;6.97;;;16.60;99.90;;;;;;5032405;28;20033;-75
2023/05/22 01:31:05;;;;;;;9.32;7.68;;;16.50;99.90;;;;;;5030868;28;20037;-75
2023/05/22 01:33:34;;;;;;;11.55;7.35;;;16.50;99.90;;;;;;5030222;28;20053;-75
2023/05/22 01:36:00;;;;;;;9.90;7.63;;;16.30;99.90;;;;;;5030960;28;20029;-75
2023/05/22 01:38:27;;;;;;;8.32;7.22;;;16.30;99.90;;;;;;5031069;28;20029;-75
2023/05/22 01:40:53;;;;;;;12.25;7.80;;;16.20;99.90;;;;;;5030126;28;20033;-75
2023/05/22 01:43:19;;;;;;;12.80;8.05;;;16.10;99.90;;;;;;5033663;28;20478;-75
2023/05/22 01:45:45;;;;;;;12.93;8.50;;;16.20;99.90;;;;;;5033603;28;20037;-76
2023/05/22 01:48:11;;;;;;;14.10;8.10;;;16.30;99.90;;;;;;5049202;28;20029;-75
2023/05/22 01:50:38;;;;;;;11.13;8.15;;;16.30;99.90;;;;;;5050708;28;20037;-75
2023/05/22 01:53:27;;;;;;;14.43;8.10;;;16.20;99.90;;;;;;5034769;28;20041;-75
2023/05/22 01:56:05;;;;;;;10.40;8.07;;;16.20;99.90;;;;;;5034222;28;20474;-75
2023/05/22 01:58:55;;;;;;;11.85;8.45;;;16.30;99.90;;;;;;5034328;28;20048;-75
2023/05/22 02:01:21;;;;;;;14.40;8.30;;;16.30;99.90;;;;;;5066261;28;20033;-75
2023/05/22 02:03:50;;;;;;;11.48;8.45;;;16.30;99.90;;;;;;5030870;28;20064;-75
2023/05/22 02:06:16;;;;;;;12.35;8.40;;;16.50;99.90;;;;;;5040319;28;20032;-75
2023/05/22 02:08:42;;;;;;;12.25;8.45;;;16.50;99.90;;;;;;5064308;28;20029;-76
2023/05/22 02:11:09;;;;;;;10.88;8.35;;;16.60;99.90;;;;;;5015582;28;20025;-75
2023/05/22 02:13:35;;;;;;;11.38;7.68;;;16.50;99.90;;;;;;5032566;28;20045;-76
2023/05/22 02:16:02;;;;;;;12.40;8.50;;;16.40;99.90;;;;;;5032382;28;20034;-76
2023/05/22 02:18:29;;;;;;;11.68;8.07;;;16.50;99.90;;;;;;5033038;28;20037;-75
2023/05/22 02:20:56;;;;;;;11.23;8.73;;;16.50;99.90;;;;;;5033305;28;20045;-76
2023/05/22 02:23:22;;;;;;;11.75;8.63;;;16.30;99.90;;;;;;5033733;28;20033;-75
2023/05/22 02:25:48;;;;;;;11.20;7.97;;;16.30;99.90;;;;;;5034019;28;20378;-76
2023/05/22 02:28:14;;;;;;;12.13;7.88;;;16.20;99.90;;;;;;5032632;28;20034;-76
2023/05/22 02:30:40;;;;;;;11.88;7.70;;;16.10;99.90;;;;;;5032828;28;20406;-76
2023/05/22 02:33:08;;;;;;;12.68;7.43;;;15.90;99.90;;;;;;5033407;28;20037;-76
2023/05/22 02:35:34;;;;;;;11.32;7.80;;;15.80;99.90;;;;;;5049142;28;20025;-75
2023/05/22 02:38:01;;;;;;;12.20;7.80;;;15.60;99.90;;;;;;5035242;28;20025;-76
2023/05/22 02:40:27;;;;;;;12.13;8.05;;;15.70;99.90;;;;;;5034357;28;20018;-75
2023/05/22 02:42:53;;;;;;;9.82;7.50;;;15.60;99.90;;;;;;5034818;28;20033;-75
2023/05/22 02:45:20;;;;;;;12.95;7.70;;;15.50;99.90;;;;;;5033905;28;20394;-76
2023/05/22 02:47:46;;;;;;;12.77;8.30;;;15.40;99.90;;;;;;5044855;28;20405;-75
2023/05/22 02:50:12;;;;;;;11.23;6.97;;;15.40;99.90;;;;;;5054419;28;20039;-76
2023/05/22 02:52:38;;;;;;;13.93;8.00;;;15.50;99.90;;;;;;5033838;28;20490;-75
2023/05/22 02:55:04;;;;;;;13.68;7.88;;;15.30;99.90;;;;;;5034635;28;20044;-76
2023/05/22 02:57:30;;;;;;;10.25;7.93;;;15.40;99.90;;;;;;5034467;28;20041;-76
2023/05/22 02:59:57;;;;;;;12.45;7.80;;;15.50;99.90;;;;;;5017016;28;20223;-75
2023/05/22 03:02:31;;;;;;;12.20;7.93;;;15.40;99.90;;;;;;5033339;28;20045;-75
2023/05/22 03:04:58;;;;;;;11.70;7.38;;;15.50;99.90;;;;;;5034506;28;20052;-75
2023/05/22 03:07:25;;;;;;;12.57;8.23;;;15.60;99.90;;;;;;5033858;28;20049;-75
2023/05/22 03:09:51;;;;;;;12.38;7.55;;;15.50;99.90;;;;;;5034265;28;20045;-76
2023/05/22 03:12:17;;;;;;;11.00;7.28;;;15.40;99.90;;;;;;5032745;28;20455;-76
2023/05/22 03:14:44;;;;;;;12.43;7.88;;;15.40;99.90;;;;;;5016499;28;20054;-76
2023/05/22 03:17:10;;;;;;;12.88;8.20;;;15.40;99.90;;;;;;5033662;28;20037;-75
2023/05/22 03:19:36;;;;;;;14.02;8.25;;;15.50;99.90;;;;;;5034123;28;20025;-75
2023/05/22 03:22:03;;;;;;;12.70;8.10;;;15.50;99.90;;;;;;5033126;28;20057;-76
2023/05/22 03:24:29;;;;;;;13.20;8.38;;;15.60;99.90;;;;;;5033425;28;20048;-76
2023/05/22 03:26:55;;;;;;;12.73;8.27;;;15.50;99.90;;;;;;5030522;28;20044;-75
2023/05/22 03:29:21;;;;;;;15.07;8.10;;;15.50;99.90;;;;;;5032639;28;20036;-76
2023/05/22 03:31:47;;;;;;;13.27;8.43;;;15.40;99.90;;;;;;5032740;28;20060;-73
2023/05/22 03:34:13;;;;;;;12.82;8.00;;;15.40;99.90;;;;;;5034065;28;20033;-73
2023/05/22 03:36:40;;;;;;;14.68;8.63;;;15.40;99.90;;;;;;5033520;28;20017;-75
2023/05/22 03:39:06;;;;;;;10.20;8.00;;;15.40;99.90;;;;;;5033918;28;20408;-76
2023/05/22 03:41:32;;;;;;;14.77;8.20;;;15.40;99.90;;;;;;5048278;28;20025;-76
2023/05/22 03:43:58;;;;;;;12.13;8.18;;;15.30;99.90;;;;;;5031385;28;20398;-76
2023/05/22 03:46:24;;;;;;;12.68;8.10;;;15.40;99.90;;;;;;5032153;28;20050;-76
2023/05/22 03:48:50;;;;;;;12.20;8.20;;;15.30;99.90;;;;;;5048014;28;20021;-75
2023/05/22 03:51:16;;;;;;;13.48;8.20;;;15.30;99.90;;;;;;5033096;28;20038;-77
2023/05/22 03:53:42;;;;;;;11.80;8.45;;;15.40;99.90;;;;;;5033204;28;20057;-73
2023/05/22 03:56:08;;;;;;;12.82;8.48;;;15.30;99.90;;;;;;5032790;28;20030;-76
2023/05/22 03:58:35;;;;;;;11.35;7.78;;;15.30;99.90;;;;;;5031593;28;20056;-76
2023/05/22 04:01:01;;;;;;;15.38;8.60;;;15.30;99.90;;;;;;5032756;28;20517;-76
2023/05/22 04:03:27;;;;;;;12.52;8.45;;;15.20;99.90;;;;;;5032227;28;20033;-76
2023/05/22 04:05:53;;;;;;;13.38;8.60;;;15.20;99.90;;;;;;5030554;28;20389;-73
2023/05/22 04:08:19;;;;;;;16.45;8.75;;;15.20;99.90;;;;;;5049967;28;20033;-77
2023/05/22 04:10:45;;;;;;;14.52;8.38;;;15.10;99.90;;;;;;5048581;28;20390;-76
2023/05/22 04:13:12;;;;;;;11.13;8.23;;;15.20;99.90;;;;;;5032116;28;20052;-77
2023/05/22 04:15:40;;;;;;;14.18;8.77;;;15.20;99.90;;;;;;5031971;28;20398;-77
2023/05/22 04:18:06;;;;;;;14.85;8.50;;;15.20;99.90;;;;;;5033455;28;20033;-74
2023/05/22 04:20:33;;;;;;;12.60;8.73;;;15.10;99.90;;;;;;5033294;28;20033;-77
2023/05/22 04:22:59;;;;;;;13.93;9.30;;;15.00;99.90;;;;;;5032304;28;20033;-77
2023/05/22 04:25:25;;;;;;;10.57;8.57;;;14.90;99.90;;;;;;5029313;28;20037;-77
2023/05/22 04:27:52;;;;;;;14.80;8.43;;;14.90;99.90;;;;;;5033034;28;20033;-77
2023/05/22 04:30:18;;;;;;;13.73;8.85;;;15.00;99.90;;;;;;5032692;28;20025;-76
2023/05/22 04:32:44;;;;;;;13.60;8.75;;;14.90;99.90;;;;;;5033300;28;20051;-76
2023/05/22 04:35:11;;;;;;;10.07;8.55;;;14.70;99.90;;;;;;5032380;28;20063;-77
2023/05/22 04:37:39;;;;;;;11.13;8.18;;;14.80;99.90;;;;;;5032926;28;20038;-76
2023/05/22 04:40:07;;;;;;;13.50;8.90;;;14.80;99.90;;;;;;5047951;28;20105;-76
2023/05/22 04:42:33;;;;;;;13.57;8.10;;;14.70;99.90;;;;;;5032384;28;20049;-76
2023/05/22 04:45:00;;;;;;;12.45;8.30;;;14.60;99.90;;;;;;5014447;28;20044;-76
2023/05/22 04:47:30;;;;;;;14.13;8.68;;;14.40;99.90;;;;;;5039387;28;20053;-76
2023/05/22 04:49:58;;;;;;;12.32;8.07;;;14.40;99.90;;;;;;5052929;28;20048;-76
2023/05/22 04:52:25;;;;;;;12.75;8.25;;;14.40;99.90;;;;;;5033853;28;20421;-76
2023/05/22 04:54:51;;;;;;;16.15;8.73;;;14.50;99.90;;;;;;5032137;28;20371;-76
2023/05/22 04:57:21;;;;;;;11.65;7.90;;;14.50;99.90;;;;;;5032241;28;20029;-76
2023/05/22 04:59:47;;;;;;;12.13;8.25;;;14.50;99.90;;;;;;5031702;28;20048;-76
2023/05/22 05:02:13;;;;;;;13.23;8.77;;;14.40;99.90;;;;;;5030965;28;20044;-76
2023/05/22 05:04:40;;;;;;;11.70;8.63;;;14.40;99.90;;;;;;5031933;28;20025;-76
2023/05/22 05:07:06;;;;;;;11.70;8.40;;;14.30;99.90;;;;;;5031161;28;20034;-76
2023/05/22 05:09:32;;;;;;;13.90;9.45;;;14.20;99.90;;;;;;5032687;28;20029;-76
2023/05/22 05:11:58;;;;;;;13.77;8.98;;;14.30;99.90;;;;;;5030778;28;20040;-77
2023/05/22 05:14:24;;;;;;;13.35;8.32;;;14.30;99.90;;;;;;5031861;28;20029;-76
2023/05/22 05:16:50;;;;;;;14.68;8.52;;;14.30;99.90;;;;;;5031522;28;20112;-77
2023/05/22 05:19:20;;;;;;;15.32;7.97;;;14.50;99.90;;;;;;5032444;28;20471;-76
2023/05/22 05:21:48;;;;;;;12.98;8.20;;;14.60;99.90;;;;;;5030536;28;20042;-76
2023/05/22 05:24:17;;;;;;;12.25;7.88;;;14.50;99.90;;;;;;5030993;28;20050;-76
2023/05/22 05:26:43;;;;;;;11.25;7.50;;;14.50;99.90;;;;;;5031581;28;20481;-76
2023/05/22 05:29:09;;;;;;;11.18;8.13;;;14.60;99.90;;;;;;5031183;28;20041;-76
2023/05/22 05:31:35;;;;;;;14.50;8.23;;;14.70;99.90;;;;;;5030526;28;20048;-77
2023/05/22 05:34:01;;;;;;;13.50;8.27;;;14.80;99.90;;;;;;5031223;28;20053;-77
2023/05/22 05:36:28;;;;;;;12.23;8.32;;;14.80;99.90;;;;;;5031984;28;20029;-76
2023/05/22 05:38:55;;;;;;;16.33;8.75;;;14.70;99.90;;;;;;5030624;28;20042;-73
2023/05/22 05:41:21;;;;;;;13.13;8.32;;;14.60;99.90;;;;;;5031729;28;20029;-76
2023/05/22 05:43:47;;;;;;;14.70;9.20;;;14.60;99.90;;;;;;5031365;28;20037;-75
2023/05/22 05:46:14;;;;;;;15.70;9.25;;;14.60;99.90;;;;;;5028274;28;20052;-75
2023/05/22 05:48:40;;;;;;;14.07;8.80;;;14.70;99.90;;;;;;5042575;28;20037;-75
2023/05/22 05:51:06;;;;;;;15.70;8.95;;;14.70;99.90;;;;;;5031178;28;20040;-75
2023/05/22 05:53:32;;;;;;;12.98;8.32;;;14.60;99.90;;;;;;5025695;28;20042;-75
2023/05/22 05:55:58;;;;;;;14.70;8.45;;;14.60;99.90;;;;;;5030999;28;20033;-75
2023/05/22 05:58:24;;;;;;;12.43;8.13;;;14.70;99.90;;;;;;5046567;28;20398;-75
2023/05/22 06:00:50;;;;;;;12.25;7.60;;;14.80;99.90;;;;;;5030830;28;20045;-74
2023/05/22 06:03:16;;;;;;;11.57;8.50;;;14.80;99.90;;;;;;5026449;28;20587;-75
2023/05/22 06:05:44;;;;;;;13.73;8.55;;;14.60;99.90;;;;;;5024569;28;20037;-74
2023/05/22 06:08:12;;;;;;;11.25;8.30;;;14.80;99.90;;;;;;5031427;28;20042;-74
2023/05/22 06:10:38;;;;;;;12.88;8.35;;;14.80;99.90;;;;;;5028687;28;20041;-74
2023/05/22 06:13:05;;;;;;;15.05;7.38;;;14.90;99.90;;;;;;5031400;28;20390;-75
2023/05/22 06:15:31;;;;;;;13.55;7.80;;;14.90;99.90;;;;;;5017807;28;20097;-74
2023/05/22 06:17:57;;;;;;;15.10;8.15;;;15.00;99.90;;;;;;5031670;28;20029;-74
2023/05/22 06:20:24;;;;;;;14.02;7.30;;;15.00;99.90;;;;;;5031671;28;20485;-74
2023/05/22 06:22:50;;;;;;;12.80;8.27;;;15.00;99.90;;;;;;5030396;28;20029;-75
2023/05/22 06:25:16;;;;;;;11.45;8.30;;;15.10;99.90;;;;;;5024926;28;20045;-75
2023/05/22 06:27:42;;;;;;;18.45;9.20;;;15.20;99.90;;;;;;5062141;28;20466;-74
2023/05/22 06:30:09;;;;;;;10.65;7.65;;;15.30;99.90;;;;;;5033074;28;20052;-74
2023/05/22 06:32:35;;;;;;;11.20;7.60;;;15.20;99.90;;;;;;5035033;28;20045;-74
2023/05/22 06:35:01;;;;;;;8.60;6.95;;;15.10;99.90;;;;;;5033095;28;20093;-74
2023/05/22 06:37:27;;;;;;;11.93;7.75;;;15.10;99.90;;;;;;5033050;28;20671;-75
2023/05/22 06:39:54;;;;;;;9.48;7.65;;;15.10;99.90;;;;;;5016368;28;20049;-74
2023/05/22 06:42:20;;;;;;;15.70;7.90;;;15.20;99.90;;;;;;5035100;28;20037;-74
2023/05/22 06:44:46;;;;;;;12.20;7.90;;;15.20;99.90;;;;;;5033281;28;20037;-75
2023/05/22 06:47:12;;;;;;;10.57;8.23;;;15.30;99.90;;;;;;5030652;28;20428;-76
2023/05/22 06:49:38;;;;;;;11.13;7.88;;;15.60;99.90;;;;;;5054950;28;20045;-76
2023/05/22 06:52:05;;;;;;;8.57;6.47;;;15.80;99.90;;;;;;5033954;28;20049;-75
2023/05/22 06:54:31;;;;;;;10.75;7.63;;;15.90;99.90;;;;;;5034979;28;20042;-75
2023/05/22 06:56:58;;;;;;;10.90;7.45;;;16.00;99.90;;;;;;5033810;28;20056;-75
2023/05/22 06:59:24;;;;;;;9.15;6.97;;;16.00;99.90;;;;;;5034409;28;20052;-74
2023/05/22 07:01:53;;;;;;;8.43;6.63;;;16.20;99.90;;;;;;5031450;28;20034;-76
2023/05/22 07:04:20;;;;;;;8.95;6.90;;;16.50;99.90;;;;;;5034773;28;20493;-76
2023/05/22 07:06:47;;;;;;;13.77;7.40;;;16.70;99.90;;;;;;5032657;28;20052;-76
2023/05/22 07:09:14;;;;;;;16.23;7.55;;;16.80;99.90;;;;;;5030658;28;20382;-75
2023/05/22 07:11:42;;;;;;;7.65;6.93;;;16.90;99.90;;;;;;5034217;28;20028;-76
2023/05/22 07:14:11;;;;;;;7.82;6.53;;;17.10;99.90;;;;;;5032471;28;20065;-75
2023/05/22 07:16:38;;;;;;;8.95;6.78;;;17.10;99.90;;;;;;5032386;28;20034;-76
2023/05/22 07:19:05;;;;;;;9.32;6.80;;;17.10;99.90;;;;;;5030984;28;20029;-75
2023/05/22 07:21:34;;;;;;;10.15;7.03;;;17.20;99.90;;;;;;5028005;28;20395;-73
2023/05/22 07:24:06;;;;;;;8.55;6.97;;;17.40;99.90;;;;;;5027979;28;20045;-74
2023/05/22 07:26:36;;;;;;;9.43;7.00;;;17.40;99.90;;;;;;5032055;28;20036;-75
2023/05/22 07:29:02;;;;;;;10.35;7.10;;;17.50;99.90;;;;;;5029467;28;20038;-75
2023/05/22 07:31:29;;;;;;;8.07;7.20;;;17.60;99.90;;;;;;5027359;28;20029;-76
2023/05/22 07:33:55;;;;;;;8.32;7.30;;;17.80;99.90;;;;;;5026115;28;20045;-75
2023/05/22 07:36:22;;;;;;;10.60;7.38;;;17.90;99.90;;;;;;5032253;28;20033;-75
2023/05/22 07:38:48;;;;;;;8.30;7.43;;;17.90;99.90;;;;;;5030987;28;20029;-74
2023/05/22 07:41:14;;;;;;;8.32;7.20;;;17.90;99.90;;;;;;5032696;28;20033;-75
2023/05/22 07:43:40;;;;;;;6.93;6.38;;;18.00;99.90;;;;;;5033782;28;20034;-75
2023/05/22 07:46:08;;;;;;;8.35;7.65;;;18.20;99.90;;;;;;5036006;28;20052;-75
2023/05/22 07:48:34;;;;;;;9.82;7.60;;;18.30;99.90;;;;;;5034416;28;20029;-74
2023/05/22 07:51:02;;;;;;;8.88;7.20;;;18.50;99.90;;;;;;5030821;28;20037;-75
2023/05/22 07:53:28;;;;;;;8.88;6.50;;;18.80;99.90;;;;;;5032388;28;20371;-75
2023/05/22 07:55:55;;;;;;;8.20;7.40;;;18.60;99.90;;;;;;5033178;28;20040;-76
2023/05/22 07:58:23;;;;;;;9.73;6.78;;;18.50;99.90;;;;;;5033969;28;20478;-75
2023/05/22 08:00:49;;;;;;;8.02;7.20;;;18.70;99.90;;;;;;5026957;28;20041;-75
2023/05/22 08:03:15;;;;;;;8.60;6.97;;;18.70;99.90;;;;;;5019952;28;20355;-75
2023/05/22 08:05:41;;;;;;;10.90;7.20;;;18.80;99.90;;;;;;5030932;28;20048;-76
2023/05/22 08:08:09;;;;;;;11.13;7.22;;;19.00;99.90;;;;;;5032325;28;20501;-75
2023/05/22 08:10:37;;;;;;;12.95;7.15;;;19.00;99.90;;;;;;5031673;28;20046;-75
2023/05/22 08:13:05;;;;;;;8.38;6.78;;;19.20;99.90;;;;;;5030623;28;20045;-75
2023/05/22 08:15:31;;;;;;;9.73;7.03;;;19.40;99.90;;;;;;5022452;28;20041;-74
2023/05/22 08:17:57;;;;;;;8.52;6.82;;;19.50;99.90;;;;;;5031824;28;20401;-75
2023/05/22 08:20:24;;;;;;;10.02;7.25;;;19.60;99.90;;;;;;5031812;28;20038;-75
2023/05/22 08:22:50;;;;;;;7.93;7.13;;;19.80;99.90;;;;;;5032896;28;20040;-74
2023/05/22 08:25:16;;;;;;;10.93;6.90;;;20.00;99.90;;;;;;5032865;28;20030;-74
2023/05/22 08:27:42;;;;;;;8.68;7.07;;;20.00;99.90;;;;;;5031815;28;20041;-74
2023/05/22 08:30:08;;;;;;;9.68;7.47;;;19.90;99.90;;;;;;5029745;28;20106;-76
2023/05/22 08:32:34;;;;;;;7.93;7.13;;;20.00;99.90;;;;;;5032263;28;20033;-73
2023/05/22 08:35:01;;;;;;;11.43;7.18;;;20.00;99.90;;;;;;5032556;28;20045;-74
2023/05/22 08:37:27;;;;;;;9.02;7.70;;;20.20;99.90;;;;;;5047957;28;20033;-75
2023/05/22 08:39:53;;;;;;;10.88;7.43;;;20.40;99.90;;;;;;5030248;28;20212;-76
2023/05/22 08:42:19;;;;;;;8.27;7.00;;;20.40;99.90;;;;;;5032704;28;20030;-74
2023/05/22 08:44:46;;;;;;;8.35;7.00;;;20.60;99.90;;;;;;5031165;28;20025;-76
2023/05/22 08:47:12;;;;;;;9.77;7.60;;;20.40;99.90;;;;;;5033376;28;20053;-76
2023/05/22 08:49:39;;;;;;;12.20;8.60;;;20.50;99.90;;;;;;5027076;28;20394;-76
2023/05/22 08:52:11;;;;;;;10.10;7.50;;;20.60;99.90;;;;;;5030953;28;20034;-75
2023/05/22 08:54:39;;;;;;;10.13;8.07;;;20.70;99.90;;;;;;5029886;28;20567;-75
2023/05/22 08:57:06;;;;;;;11.65;8.40;;;20.80;99.90;;;;;;5027995;28;20037;-76
2023/05/22 08:59:34;;;;;;;10.93;8.35;;;20.80;99.90;;;;;;5030483;28;20052;-75
2023/05/22 09:02:00;;;;;;;9.82;8.82;;;20.80;99.90;;;;;;5030033;28;20033;-75
2023/05/22 09:04:27;;;;;;;10.15;9.25;;;21.00;99.90;;;;;;5031110;28;20034;-75
2023/05/22 09:06:54;;;;;;;10.20;9.30;;;21.10;99.90;;;;;;5030628;28;20044;-75
2023/05/22 09:09:20;;;;;;;8.85;8.05;;;21.20;99.90;;;;;;5030695;28;20042;-75
2023/05/22 09:11:46;;;;;;;12.05;9.63;;;21.20;99.90;;;;;;5032063;28;20049;-75
2023/05/22 09:14:12;;;;;;;13.57;10.32;;;21.40;99.90;;;;;;5031875;28;20064;-75
2023/05/22 09:16:48;;;;;;;10.05;9.05;;;21.50;99.90;;;;;;5056947;28;20037;-75
2023/05/22 09:19:14;;;;;;;10.50;9.15;;;21.50;99.90;;;;;;5029693;28;20504;-75
2023/05/22 09:21:40;;;;;;;11.35;10.25;;;21.60;99.90;;;;;;5032109;28;20017;-75
2023/05/22 09:24:08;;;;;;;11.32;10.23;;;21.60;99.90;;;;;;5031323;28;20038;-75
2023/05/22 09:26:35;;;;;;;10.75;9.63;;;21.50;99.90;;;;;;5030168;28;20386;-75
2023/05/22 09:29:01;;;;;;;10.45;8.88;;;21.40;99.90;;;;;;5031987;28;20029;-75
2023/05/22 09:31:28;;;;;;;10.05;9.10;;;21.50;99.90;;;;;;5027325;28;20036;-75
2023/05/22 09:33:54;;;;;;;10.98;9.95;;;21.50;99.90;;;;;;5031626;28;20056;-75
2023/05/22 09:36:21;;;;;;;11.15;9.68;;;21.60;99.90;;;;;;5030411;28;20022;-75
2023/05/22 09:38:47;;;;;;;10.98;8.98;;;21.70;99.90;;;;;;5046633;28;20042;-75
2023/05/22 09:41:13;;;;;;;10.90;9.77;;;21.80;99.90;;;;;;5030638;28;20053;-75
2023/05/22 09:43:39;;;;;;;11.75;10.23;;;21.60;99.90;;;;;;5030986;28;20034;-75
2023/05/22 09:46:05;;;;;;;10.88;9.05;;;21.60;99.90;;;;;;5023576;28;20414;-75
2023/05/22 09:48:34;;;;;;;9.95;9.05;;;21.70;99.90;;;;;;5028110;28;20382;-75
2023/05/22 09:51:00;;;;;;;10.05;9.05;;;21.70;99.90;;;;;;5026900;28;20033;-75
2023/05/22 09:53:27;;;;;;;10.65;9.70;;;21.80;99.90;;;;;;5030624;28;20037;-75
2023/05/22 09:55:57;;;;;;;10.55;9.55;;;21.90;99.90;;;;;;5029978;28;20036;-75
2023/05/22 09:58:25;;;;;;;11.07;10.00;;;21.70;99.90;;;;;;5029451;28;20382;-75
2023/05/22 10:00:51;;;;;;;14.00;8.63;;;21.50;99.90;;;;;;5028184;28;20038;-75
2023/05/22 10:03:17;;;;;;;11.32;9.38;;;21.50;99.90;;;;;;5031754;28;20022;-75
2023/05/22 10:05:49;;;;;;;9.00;8.13;;;21.40;99.90;;;;;;5034650;28;20386;-74
2023/05/22 10:08:17;;;;;;;9.55;8.65;;;21.60;99.90;;;;;;5034724;28;20100;-75
2023/05/22 10:10:46;;;;;;;13.80;9.07;;;21.70;99.90;;;;;;5033969;28;20037;-75
2023/05/22 10:13:12;;;;;;;11.98;10.65;;;21.90;99.90;;;;;;5018047;28;20045;-75
2023/05/22 10:15:38;;;;;;;10.60;8.98;;;22.00;99.90;;;;;;5034770;28;20034;-75
2023/05/22 10:18:05;;;;;;;11.15;10.00;;;22.10;99.90;;;;;;5034050;28;20037;-76
2023/05/22 10:20:31;;;;;;;11.02;9.93;;;22.10;99.90;;;;;;5033602;28;20048;-76
2023/05/22 10:22:57;;;;;;;10.27;9.43;;;22.00;99.90;;;;;;5034483;28;20026;-75
2023/05/22 10:25:24;;;;;;;10.70;9.27;;;21.90;99.90;;;;;;5034107;28;20046;-76
2023/05/22 10:27:51;;;;;;;10.70;9.60;;;22.00;99.90;;;;;;5034548;28;20034;-75
2023/05/22 10:30:47;;;;;;;11.98;10.77;;;22.10;99.90;;;;;;5031445;28;20033;-75
2023/05/22 10:33:23;;;;;;;9.98;9.02;;;22.10;99.90;;;;;;5012803;28;20029;-75
2023/05/22 10:35:51;;;;;;;9.52;8.50;;;21.90;99.90;;;;;;5030517;28;20049;-76
2023/05/22 10:38:52;;;;;;;10.38;9.10;;;21.90;99.90;;;;;;5032015;28;20037;-76
2023/05/22 10:41:18;;;;;;;;;;;21.90;99.90;;;;;;5059661;28;20494;-73
2023/05/22 10:43:47;;;;;;;10.23;8.50;;;22.00;99.90;;;;;;5031542;28;19912;-75
2023/05/22 10:46:13;;;;;;;9.77;8.88;;;22.10;99.90;;;;;;5032061;28;20402;-75
2023/05/22 10:48:44;;;;;;;8.43;7.63;;;22.10;99.90;;;;;;5041968;28;20056;-75
2023/05/22 10:51:12;;;;;;;10.90;9.77;;;22.20;99.90;;;;;;5031984;28;20037;-75
2023/05/22 10:53:39;;;;;;;10.45;9.45;;;22.20;99.90;;;;;;5032864;28;20046;-75
2023/05/22 10:56:12;;;;;;;11.00;9.95;;;22.10;99.90;;;;;;5032384;28;20418;-74
2023/05/22 10:58:40;;;;;;;10.68;9.68;;;22.10;99.90;;;;;;5032532;28;20037;-74
2023/05/22 11:01:14;;;;;;;10.20;9.10;;;22.20;99.90;;;;;;5032083;28;20410;-75
2023/05/22 11:03:55;;;;;;;10.82;9.93;;;22.30;99.90;;;;;;5034444;28;20351;-74
2023/05/22 11:06:45;;;;;;;10.43;9.35;;;22.30;99.90;;;;;;5033545;28;20103;-74
2023/05/22 11:09:24;;;;;;;8.85;8.05;;;22.40;99.90;;;;;;5034481;28;20033;-74
2023/05/22 11:12:23;;;;;;;10.95;10.02;;;22.40;99.90;;;;;;5030357;28;20438;-74
2023/05/22 11:14:49;;;;;;;10.88;9.88;;;22.50;99.90;;;;;;5032086;28;20428;-74
2023/05/22 11:17:18;;;;;;;12.27;10.65;;;22.30;99.90;;;;;;5033662;28;20037;-75
2023/05/22 11:19:48;;;;;;;10.80;9.73;;;22.40;99.90;;;;;;5032622;28;20076;-75
2023/05/22 11:22:16;;;;;;;11.45;10.45;;;22.40;99.90;;;;;;5016164;28;20037;-75
2023/05/22 11:24:42;;;;;;;12.57;10.60;;;22.60;99.90;;;;;;5015845;28;20037;-75
2023/05/22 11:27:08;;;;;;;10.68;9.55;;;22.50;99.90;;;;;;5031227;28;20034;-74
2023/05/22 11:29:36;;;;;;;11.38;9.80;;;22.60;99.90;;;;;;5032185;28;20046;-74
2023/05/22 11:32:02;;;;;;;12.55;11.63;;;22.50;99.90;;;;;;5032732;28;20478;-75
2023/05/22 11:34:28;;;;;;;11.40;10.50;;;22.50;99.90;;;;;;5032417;28;20041;-75
2023/05/22 11:37:00;;;;;;;13.43;12.20;;;22.60;99.90;;;;;;5032863;28;20037;-75
2023/05/22 11:39:26;;;;;;;12.75;11.65;;;22.70;99.90;;;;;;5031815;28;20041;-75
2023/05/22 11:41:53;;;;;;;13.63;12.43;;;22.80;99.90;;;;;;5033216;28;20041;-75
2023/05/22 11:44:19;;;;;;;13.98;12.77;;;23.00;99.90;;;;;;5034261;28;20052;-76
2023/05/22 11:46:45;;;;;;;15.30;14.20;;;23.00;99.90;;;;;;5033734;28;20406;-75
2023/05/22 11:49:12;;;;;;;11.63;10.60;;;23.10;99.90;;;;;;5047640;28;20037;-76
2023/05/22 11:51:39;;;;;;;13.23;12.18;;;23.20;99.90;;;;;;5033580;28;20386;-76
2023/05/22 11:54:06;;;;;;;13.73;12.63;;;23.30;99.90;;;;;;5032263;28;20060;-76
2023/05/22 11:56:32;;;;;;;13.90;12.90;;;23.20;99.90;;;;;;5032663;28;20041;-75
2023/05/22 11:58:58;;;;;;;13.38;12.27;;;23.20;99.90;;;;;;5030633;28;20037;-75
2023/05/22 12:01:25;;;;;;;10.38;9.38;;;23.00;99.90;;;;;;5033007;28;20041;-75
2023/05/22 12:03:51;;;;;;;13.65;12.50;;;23.20;99.90;;;;;;5033168;28;20021;-75
2023/05/22 12:06:17;;;;;;;10.60;9.68;;;23.30;99.90;;;;;;5048119;28;20049;-75
2023/05/22 12:08:43;;;;;;;12.75;11.80;;;23.40;99.90;;;;;;5032043;28;20029;-75
2023/05/22 12:11:10;;;;;;;10.85;9.73;;;23.40;99.90;;;;;;5029883;28;20503;-75
2023/05/22 12:13:36;;;;;;;10.30;9.45;;;23.30;99.90;;;;;;5031746;28;20033;-75
2023/05/22 12:16:18;;;;;;;12.23;11.18;;;23.40;99.90;;;;;;5031337;28;20049;-75
2023/05/22 12:18:44;;;;;;;11.18;10.30;;;23.40;99.90;;;;;;5016906;28;20410;-75
2023/05/22 12:21:11;;;;;;;13.30;12.10;;;23.40;99.90;;;;;;5031955;28;20029;-75
2023/05/22 12:23:45;;;;;;;12.55;11.65;;;23.60;99.90;;;;;;5033125;28;20547;-75
2023/05/22 12:26:12;;;;;;;13.35;12.25;;;23.50;99.90;;;;;;5031323;28;20478;-75
2023/05/22 12:28:38;;;;;;;12.38;11.32;;;23.50;99.90;;;;;;5033233;28;20030;-75
2023/05/22 12:31:04;;;;;;;13.25;12.05;;;23.40;99.90;;;;;;5031243;28;20037;-75
2023/05/22 12:33:30;;;;;;;13.43;12.27;;;23.50;99.90;;;;;;5032356;28;20406;-75
2023/05/22 12:35:57;;;;;;;12.60;11.70;;;23.50;99.90;;;;;;5032110;28;20052;-75
2023/05/22 12:38:28;;;;;;;12.35;11.35;;;23.50;99.90;;;;;;5031681;28;20017;-75
2023/05/22 12:40:55;;;;;;;13.77;12.55;;;23.70;99.90;;;;;;5030752;28;20037;-75